createdAt,value
2022-10-23T00:00:24.031Z,91.81
2022-10-23T00:05:26.838Z,91.42
2022-10-23T00:10:28.209Z,92.43
2022-10-23T00:15:29.521Z,91.33
2022-10-23T00:20:30.919Z,91.77
2022-10-23T00:25:33.419Z,91.44
2022-10-23T00:30:34.684Z,92.11
2022-10-23T00:35:40.349Z,92.23
2022-10-23T00:40:43.881Z,92.71
2022-10-23T00:45:45.416Z,91.79
2022-10-23T00:50:48.541Z,91.75
2022-10-23T00:55:53.800Z,91.46
2022-10-23T01:00:57.114Z,91.12
2022-10-23T01:06:01.375Z,92.29
2022-10-23T01:11:12.147Z,92.38
2022-10-23T01:16:31.621Z,92.50
2022-10-23T01:21:54.399Z,92.39
2022-10-23T01:27:22.445Z,92.52
2022-10-23T01:32:29.348Z,92.73
2022-10-23T01:37:41.451Z,92.92
2022-10-23T01:42:48.104Z,92.85
2022-10-23T01:47:51.822Z,92.34
2022-10-23T01:52:53.267Z,92.14
2022-10-23T01:57:55.013Z,92.44
2022-10-23T02:02:58.786Z,91.90
2022-10-23T02:08:00.729Z,92.51
2022-10-23T02:13:19.007Z,92.37
2022-10-23T02:18:40.380Z,93.57
2022-10-23T02:23:52.547Z,92.72
2022-10-23T02:29:08.786Z,92.75
2022-10-23T02:34:10.156Z,92.53
2022-10-23T02:39:11.637Z,92.66
2022-10-23T02:44:25.130Z,92.77
2022-10-23T02:49:51.825Z,92.80
2022-10-23T02:55:05.888Z,92.80
2022-10-23T03:00:14.475Z,93.24
2022-10-23T03:05:21.825Z,91.12
2022-10-23T03:10:23.696Z,91.66
2022-10-23T03:15:25.078Z,90.92
2022-10-23T03:20:26.516Z,91.33
2022-10-23T03:25:28.397Z,92.41
2022-10-23T03:30:29.648Z,91.54
2022-10-23T03:35:31.084Z,91.16
2022-10-23T03:40:32.599Z,90.74
2022-10-23T03:45:34.208Z,90.92
2022-10-23T03:50:35.736Z,90.91
2022-10-23T03:55:36.998Z,91.43
2022-10-23T04:00:38.328Z,91.42
2022-10-23T04:05:41.264Z,90.91
2022-10-23T04:10:42.759Z,91.84
2022-10-23T04:15:53.515Z,92.78
2022-10-23T04:20:54.750Z,88.94
2022-10-23T04:25:57.502Z,88.90
2022-10-23T04:30:58.773Z,90.87
2022-10-23T04:36:00.118Z,89.18
2022-10-23T04:41:01.420Z,89.67
2022-10-23T04:46:02.792Z,90.53
2022-10-23T04:51:05.948Z,91.55
2022-10-23T04:56:07.435Z,91.11
2022-10-23T05:01:10.552Z,92.26
2022-10-23T05:06:12.094Z,92.13
2022-10-23T05:11:13.358Z,92.31
2022-10-23T05:16:37.755Z,92.59
2022-10-23T05:21:40.401Z,92.16
2022-10-23T05:26:41.700Z,91.92
2022-10-23T05:31:43.558Z,93.43
2022-10-23T05:36:45.701Z,92.21
2022-10-23T05:41:47.058Z,92.03
2022-10-23T05:46:48.517Z,91.93
2022-10-23T05:51:49.770Z,91.81
2022-10-23T05:56:51.866Z,91.37
2022-10-23T06:01:53.224Z,92.40
2022-10-23T06:06:54.608Z,91.79
2022-10-23T06:11:56.269Z,92.08
2022-10-23T06:16:57.579Z,91.61
2022-10-23T06:21:58.840Z,91.84
2022-10-23T06:27:00.084Z,91.96
2022-10-23T06:32:01.452Z,91.12
2022-10-23T06:37:02.791Z,91.78
2022-10-23T06:42:04.178Z,90.95
2022-10-23T06:47:06.556Z,90.35
2022-10-23T06:52:14.379Z,90.50
2022-10-23T06:57:29.078Z,90.82
2022-10-23T07:02:30.383Z,89.18
2022-10-23T07:07:32.078Z,89.09
2022-10-23T07:12:33.382Z,89.09
2022-10-23T07:17:34.600Z,88.79
2022-10-23T07:22:35.841Z,88.30
2022-10-23T07:27:38.313Z,86.67
2022-10-23T07:32:39.840Z,86.12
2022-10-23T07:37:41.554Z,84.53
2022-10-23T07:42:43.118Z,84.37
2022-10-23T07:47:50.630Z,83.68
2022-10-23T07:52:51.978Z,82.53
2022-10-23T07:57:53.221Z,81.77
2022-10-23T08:02:54.482Z,80.98
2022-10-23T08:07:55.723Z,80.51
2022-10-23T08:12:56.953Z,79.93
2022-10-23T08:17:58.227Z,79.06
2022-10-23T08:22:59.666Z,78.65
2022-10-23T08:28:04.217Z,78.87
2022-10-23T08:33:07.666Z,77.63
2022-10-23T08:38:10.469Z,77.77
2022-10-23T08:43:11.746Z,77.43
2022-10-23T08:48:25.972Z,77.36
2022-10-23T08:53:40.706Z,77.02
2022-10-23T08:58:48.263Z,75.64
2022-10-23T09:03:50.362Z,74.82
2022-10-23T09:09:10.528Z,74.78
2022-10-23T09:14:44.672Z,74.29
2022-10-23T09:19:50.245Z,76.96
2022-10-23T09:24:53.791Z,77.62
2022-10-23T09:29:56.104Z,77.98
2022-10-23T09:34:57.372Z,78.80
2022-10-23T09:40:12.356Z,78.27
2022-10-23T09:45:34.727Z,78.33
2022-10-23T09:50:35.973Z,78.16
2022-10-23T09:55:37.274Z,76.21
2022-10-23T10:00:47.018Z,74.33
2022-10-23T10:06:02.989Z,73.98
2022-10-23T10:11:36.074Z,73.28
2022-10-23T10:16:57.224Z,71.05
2022-10-23T10:22:31.113Z,63.88
2022-10-23T10:27:54.971Z,66.93
2022-10-23T10:33:17.765Z,69.96
2022-10-23T10:38:28.193Z,69.98
2022-10-23T10:43:37.466Z,72.99
2022-10-23T10:48:49.385Z,72.25
2022-10-23T10:54:26.646Z,72.83
2022-10-23T10:59:37.629Z,74.62
2022-10-23T11:04:51.030Z,74.34
2022-10-23T11:09:52.371Z,75.48
2022-10-23T11:14:53.998Z,75.35
2022-10-23T11:20:32.523Z,73.01
2022-10-23T11:25:58.758Z,70.43
2022-10-23T11:31:26.669Z,68.44
2022-10-23T11:36:49.159Z,68.86
2022-10-23T11:42:10.385Z,65.93
2022-10-23T11:47:40.760Z,66.12
2022-10-23T11:53:14.956Z,66.99
2022-10-23T11:58:21.584Z,67.45
2022-10-23T12:03:29.308Z,66.97
2022-10-23T12:08:34.728Z,59.62
2022-10-23T12:13:38.721Z,45.61
2022-10-23T12:18:47.680Z,35.50
2022-10-23T12:23:48.862Z,31.72
2022-10-23T12:28:59.013Z,29.04
2022-10-23T12:34:09.594Z,27.46
2022-10-23T12:39:30.921Z,26.53
2022-10-23T12:44:32.478Z,25.41
2022-10-23T12:49:35.347Z,25.34
2022-10-23T12:54:39.422Z,24.76
2022-10-23T12:59:42.626Z,26.68
2022-10-23T13:04:43.928Z,30.25
2022-10-23T13:09:45.802Z,31.17
2022-10-23T13:15:17.860Z,36.25
2022-10-23T13:20:23.694Z,41.11
2022-10-23T13:25:32.766Z,40.72
2022-10-23T13:30:46.218Z,40.44
2022-10-23T13:35:58.270Z,42.04
2022-10-23T13:41:00.929Z,43.63
2022-10-23T13:46:02.493Z,44.90
2022-10-23T13:51:17.550Z,44.37
2022-10-23T13:56:20.592Z,46.01
2022-10-23T14:01:28.858Z,46.40
2022-10-23T14:06:31.602Z,48.77
2022-10-23T14:11:33.762Z,50.74
2022-10-23T14:16:35.088Z,49.35
2022-10-23T14:21:36.550Z,49.54
2022-10-23T14:26:38.023Z,51.74
2022-10-23T14:31:39.304Z,52.82
2022-10-23T14:36:49.608Z,54.24
2022-10-23T14:41:52.285Z,55.62
2022-10-23T14:46:53.555Z,57.39
2022-10-23T14:51:54.846Z,58.58
2022-10-23T14:56:56.139Z,59.53
2022-10-23T15:01:57.370Z,60.19
2022-10-23T15:06:58.645Z,61.20
2022-10-23T15:11:59.934Z,62.06
2022-10-23T15:17:01.393Z,63.08
2022-10-23T15:22:02.674Z,63.30
2022-10-23T15:27:04.054Z,64.20
2022-10-23T15:32:05.956Z,64.54
2022-10-23T15:37:07.286Z,65.24
2022-10-23T15:42:10.533Z,66.11
2022-10-23T15:47:11.774Z,66.81
2022-10-23T15:52:13.136Z,67.42
2022-10-23T15:57:14.418Z,67.94
2022-10-23T16:02:15.820Z,68.42
2022-10-23T16:07:17.231Z,69.02
2022-10-23T16:12:18.490Z,69.25
2022-10-23T16:17:19.853Z,69.65
2022-10-23T16:22:21.178Z,69.89
2022-10-23T16:27:22.425Z,69.84
2022-10-23T16:32:23.705Z,70.34
2022-10-23T16:37:24.966Z,71.01
2022-10-23T16:42:26.594Z,70.87
2022-10-23T16:47:30.982Z,70.81
2022-10-23T16:52:33.213Z,71.67
2022-10-23T16:57:36.064Z,71.61
2022-10-23T17:02:37.915Z,72.11
2022-10-23T17:07:39.273Z,72.60
2022-10-23T17:12:40.511Z,73.57
2022-10-23T17:17:43.065Z,73.54
2022-10-23T17:22:44.599Z,73.89
2022-10-23T17:27:46.482Z,74.03
2022-10-23T17:32:48.004Z,74.57
2022-10-23T17:37:50.397Z,74.57
2022-10-23T17:42:51.658Z,74.15
2022-10-23T17:47:53.210Z,74.94
2022-10-23T17:52:54.474Z,77.36
2022-10-23T17:57:55.710Z,88.57
2022-10-23T18:02:56.953Z,91.82
2022-10-23T18:07:58.525Z,91.78
2022-10-23T18:12:59.923Z,91.79
2022-10-23T18:18:07.576Z,91.50
2022-10-23T18:23:09.007Z,93.23
2022-10-23T18:28:10.255Z,95.68
2022-10-23T18:33:11.487Z,97.87
2022-10-23T18:38:13.835Z,98.49
2022-10-23T18:43:20.014Z,98.61
2022-10-23T18:48:32.813Z,99.22
2022-10-23T18:53:34.086Z,100.00
2022-10-23T18:58:35.335Z,99.58
2022-10-23T19:03:36.577Z,98.80
2022-10-23T19:08:40.377Z,100.00
2022-10-23T19:13:42.855Z,100.00
2022-10-23T19:18:51.781Z,100.00
2022-10-23T19:23:53.091Z,100.00
2022-10-23T19:28:54.476Z,100.00
2022-10-23T19:33:55.742Z,100.00
2022-10-23T19:38:56.998Z,100.00
2022-10-23T19:43:58.297Z,100.00
2022-10-23T19:48:59.566Z,100.00
2022-10-23T19:54:00.850Z,100.00
2022-10-23T19:59:02.138Z,100.00
2022-10-23T20:04:03.646Z,100.00
2022-10-23T20:09:09.632Z,100.00
2022-10-23T20:14:12.329Z,100.00
2022-10-23T20:24:19.284Z,100.00
2022-10-23T20:29:21.138Z,100.00
2022-10-23T20:34:22.524Z,100.00
2022-10-23T20:39:25.500Z,100.00
2022-10-23T20:44:26.767Z,100.00
2022-10-23T20:49:28.257Z,100.00
2022-10-23T20:54:29.668Z,100.00
2022-10-23T20:59:30.982Z,100.00
2022-10-23T21:04:32.288Z,100.00
2022-10-23T21:09:33.586Z,100.00
2022-10-23T21:14:35.510Z,100.00
2022-10-23T21:19:36.813Z,100.00
2022-10-23T21:24:38.074Z,100.00
2022-10-23T21:29:39.311Z,100.00
2022-10-23T21:34:40.611Z,100.00
2022-10-23T21:39:43.507Z,100.00
2022-10-23T21:44:44.877Z,100.00
2022-10-23T21:49:46.221Z,100.00
2022-10-23T21:54:51.997Z,100.00
2022-10-23T21:59:54.313Z,100.00
2022-10-23T22:04:55.537Z,100.00
2022-10-23T22:09:56.809Z,100.00
2022-10-23T22:14:58.089Z,100.00
2022-10-23T22:19:59.334Z,100.00
2022-10-23T22:25:01.333Z,100.00
2022-10-23T22:30:03.682Z,100.00
2022-10-23T22:35:05.503Z,100.00
2022-10-23T22:40:08.393Z,100.00
2022-10-23T22:45:09.862Z,100.00
2022-10-23T22:50:11.150Z,100.00
2022-10-23T22:55:12.397Z,100.00
2022-10-23T23:00:14.118Z,100.00
2022-10-23T23:05:15.367Z,100.00
2022-10-23T23:10:16.666Z,100.00
2022-10-23T23:15:18.431Z,100.00
2022-10-23T23:20:19.787Z,100.00
2022-10-23T23:25:21.019Z,100.00
2022-10-23T23:30:22.568Z,100.00
2022-10-23T23:35:24.001Z,100.00
2022-10-23T23:40:25.604Z,100.00
2022-10-23T23:45:26.881Z,100.00
2022-10-23T23:50:28.162Z,100.00
2022-10-23T23:55:29.466Z,100.00
